Time,TemperatureF,DewpointF,PressureIn,WindDirection,WindDirectionDegrees,WindSpeedMPH,WindSpeedGustMPH,Humidity,HourlyPrecipIn,Conditions,Clouds,dailyrainin,SoftwareType,DateUTC
2013-08-19 00:00:00,62.1,57.8,29.17,NE,45,0.0,1.6,86,0.00,,,0.00,VWS V14.01,2013-08-19 05:00:00,
2013-08-19 00:05:00,61.9,57.7,29.17,East,90,0.0,0.9,86,0.00,,,0.00,VWS V14.01,2013-08-19 05:05:00,
2013-08-19 00:10:00,61.7,57.2,29.17,East,90,0.0,0.0,85,0.00,,,0.00,VWS V14.01,2013-08-19 05:10:00,
2013-08-19 00:15:00,61.5,57.3,29.17,East,90,0.0,0.0,86,0.00,,,0.00,VWS V14.01,2013-08-19 05:15:00,
2013-08-19 00:20:00,61.5,57.3,29.17,ESE,112,0.0,0.0,86,0.00,,,0.00,VWS V14.01,2013-08-19 05:20:00,
2013-08-19 00:25:00,61.2,57.0,29.14,ESE,112,0.0,0.0,86,0.00,,,0.00,VWS V14.01,2013-08-19 05:25:00,
2013-08-19 00:30:00,60.8,56.3,29.14,NE,45,0.0,0.0,85,0.00,,,0.00,VWS V14.01,2013-08-19 05:30:00,
2013-08-19 00:35:00,60.4,56.2,29.14,NE,45,0.0,0.0,86,0.00,,,0.00,VWS V14.01,2013-08-19 05:35:00,
2013-08-19 00:40:00,60.1,56.2,29.17,ESE,112,0.0,0.0,87,0.00,,,0.00,VWS V14.01,2013-08-19 05:40:00,
2013-08-19 00:45:00,59.9,57.0,29.17,SE,135,0.0,2.0,90,0.00,,,0.00,VWS V14.01,2013-08-19 05:45:00,
2013-08-19 00:50:00,60.3,57.3,29.17,ESE,112,1.6,2.5,90,0.00,,,0.00,VWS V14.01,2013-08-19 05:50:00,
2013-08-19 00:55:00,60.6,58.0,29.14,SSW,202,0.0,2.7,91,0.00,,,0.00,VWS V14.01,2013-08-19 05:55:00,
2013-08-19 01:00:00,60.8,58.2,29.14,ESE,112,1.3,2.2,91,0.00,,,0.00,VWS V14.01,2013-08-19 06:00:00,
2013-08-19 01:05:00,61.0,58.0,29.14,East,90,0.0,1.1,90,0.00,,,0.00,VWS V14.01,2013-08-19 06:05:00,
2013-08-19 01:10:00,60.8,57.2,29.14,East,90,0.0,0.0,88,0.00,,,0.00,VWS V14.01,2013-08-19 06:10:00,
2013-08-19 01:15:00,60.4,56.9,29.14,East,90,0.0,0.0,88,0.00,,,0.00,VWS V14.01,2013-08-19 06:15:00,
2013-08-19 01:20:00,59.9,56.7,29.14,East,90,0.0,0.0,89,0.00,,,0.00,VWS V14.01,2013-08-19 06:20:00,
2013-08-19 01:25:00,59.7,56.5,29.14,ESE,112,0.0,2.0,89,0.00,,,0.00,VWS V14.01,2013-08-19 06:25:00,
2013-08-19 01:30:00,59.7,56.8,29.14,East,90,0.0,0.0,90,0.00,,,0.00,VWS V14.01,2013-08-19 06:30:00,
2013-08-19 01:35:00,59.7,57.1,29.14,SE,135,0.0,2.0,91,0.00,,,0.00,VWS V14.01,2013-08-19 06:35:00,
2013-08-19 01:40:00,59.9,57.6,29.12,ESE,112,1.6,2.7,92,0.00,,,0.00,VWS V14.01,2013-08-19 06:40:00,
2013-08-19 01:45:00,60.1,57.5,29.12,ESE,112,0.0,1.1,91,0.00,,,0.00,VWS V14.01,2013-08-19 06:45:00,
2013-08-19 01:51:00,60.1,57.8,29.12,ESE,112,0.0,2.5,92,0.00,,,0.00,VWS V14.01,2013-08-19 06:51:00,
2013-08-19 01:56:00,60.1,57.8,29.14,ESE,112,1.1,2.5,92,0.00,,,0.00,VWS V14.01,2013-08-19 06:56:00,
2013-08-19 02:01:00,60.3,57.9,29.14,East,90,1.6,2.0,92,0.00,,,0.00,VWS V14.01,2013-08-19 07:01:00,
2013-08-19 02:06:00,60.3,57.9,29.14,ESE,112,0.0,0.0,92,0.00,,,0.00,VWS V14.01,2013-08-19 07:06:00,
2013-08-19 02:11:00,60.3,57.6,29.14,East,90,0.0,0.0,91,0.00,,,0.00,VWS V14.01,2013-08-19 07:11:00,
2013-08-19 02:16:00,60.1,57.5,29.14,ENE,68,0.0,0.0,91,0.00,,,0.00,VWS V14.01,2013-08-19 07:16:00,
2013-08-19 02:21:00,60.1,57.5,29.14,ESE,112,0.0,0.0,91,0.00,,,0.00,VWS V14.01,2013-08-19 07:21:00,
2013-08-19 02:26:00,59.7,56.8,29.14,ESE,112,0.0,0.0,90,0.00,,,0.00,VWS V14.01,2013-08-19 07:26:00,
2013-08-19 02:31:00,59.4,56.1,29.14,SSW,202,0.0,0.0,89,0.00,,,0.00,VWS V14.01,2013-08-19 07:31:00,
2013-08-19 02:36:00,58.8,55.6,29.14,SSW,202,0.0,0.0,89,0.00,,,0.00,VWS V14.01,2013-08-19 07:36:00,
2013-08-19 02:41:00,58.5,55.5,29.14,SSW,202,0.0,0.0,90,0.00,,,0.00,VWS V14.01,2013-08-19 07:41:00,
2013-08-19 02:46:00,58.3,55.7,29.14,SE,135,0.0,0.0,91,0.00,,,0.00,VWS V14.01,2013-08-19 07:46:00,
2013-08-19 02:51:00,58.1,55.5,29.14,SE,135,0.0,0.0,91,0.00,,,0.00,VWS V14.01,2013-08-19 07:51:00,
2013-08-19 02:56:00,57.7,55.1,29.14,SE,135,0.0,0.0,91,0.00,,,0.00,VWS V14.01,2013-08-19 07:56:00,
2013-08-19 03:01:00,57.6,55.3,29.14,SE,135,0.0,0.0,92,0.00,,,0.00,VWS V14.01,2013-08-19 08:01:00,
2013-08-19 03:06:00,57.2,54.9,29.14,SE,135,0.0,0.0,92,0.00,,,0.00,VWS V14.01,2013-08-19 08:06:00,
2013-08-19 03:11:00,57.0,54.7,29.12,SE,135,0.0,0.0,92,0.00,,,0.00,VWS V14.01,2013-08-19 08:11:00,
2013-08-19 03:16:00,56.7,54.7,29.12,SE,135,0.0,0.0,93,0.00,,,0.00,VWS V14.01,2013-08-19 08:16:00,
2013-08-19 03:21:00,56.5,54.5,29.12,SE,135,0.0,0.0,93,0.00,,,0.00,VWS V14.01,2013-08-19 08:21:00,
2013-08-19 03:26:00,56.3,54.3,29.12,SE,135,0.0,0.0,93,0.00,,,0.00,VWS V14.01,2013-08-19 08:26:00,
2013-08-19 03:31:00,56.1,54.1,29.12,SE,135,0.0,0.0,93,0.00,,,0.00,VWS V14.01,2013-08-19 08:31:00,
2013-08-19 03:36:00,55.9,54.0,29.12,SE,135,0.0,0.0,93,0.00,,,0.00,VWS V14.01,2013-08-19 08:36:00,
2013-08-19 03:41:00,55.9,54.0,29.14,SE,135,0.0,0.0,93,0.00,,,0.00,VWS V14.01,2013-08-19 08:41:00,
2013-08-19 03:46:00,55.8,54.1,29.14,SE,135,0.0,0.0,94,0.00,,,0.00,VWS V14.01,2013-08-19 08:46:00,
2013-08-19 03:51:00,55.6,53.9,29.14,SE,135,0.0,0.0,94,0.00,,,0.00,VWS V14.01,2013-08-19 08:51:00,
2013-08-19 03:56:00,55.6,53.9,29.14,SE,135,0.0,0.0,94,0.00,,,0.00,VWS V14.01,2013-08-19 08:56:00,
2013-08-19 04:01:00,55.6,53.9,29.14,SE,135,0.0,0.0,94,0.00,,,0.00,VWS V14.01,2013-08-19 09:01:00,
2013-08-19 04:06:00,55.4,53.7,29.14,SE,135,0.0,0.0,94,0.00,,,0.00,VWS V14.01,2013-08-19 09:06:00,
2013-08-19 04:11:00,55.4,54.0,29.14,SE,135,0.0,0.0,95,0.00,,,0.00,VWS V14.01,2013-08-19 09:11:00,
2013-08-19 04:17:00,55.4,53.7,29.14,SE,135,0.0,0.0,94,0.00,,,0.00,VWS V14.01,2013-08-19 09:17:00,
2013-08-19 04:22:00,55.2,53.8,29.14,SE,135,0.0,0.0,95,0.00,,,0.00,VWS V14.01,2013-08-19 09:22:00,
2013-08-19 04:27:00,55.2,53.8,29.14,SE,135,0.0,0.0,95,0.00,,,0.00,VWS V14.01,2013-08-19 09:27:00,
2013-08-19 04:32:00,55.2,53.8,29.14,SE,135,0.0,0.0,95,0.00,,,0.00,VWS V14.01,2013-08-19 09:32:00,
2013-08-19 04:37:00,55.2,54.1,29.14,SE,135,0.0,0.0,96,0.00,,,0.00,VWS V14.01,2013-08-19 09:37:00,
2013-08-19 04:42:00,55.2,54.1,29.14,SE,135,0.0,0.0,96,0.00,,,0.00,VWS V14.01,2013-08-19 09:42:00,
2013-08-19 04:47:00,55.2,54.1,29.14,SE,135,0.0,0.0,96,0.00,,,0.00,VWS V14.01,2013-08-19 09:47:00,
2013-08-19 04:52:00,55.2,54.1,29.14,East,90,0.0,0.0,96,0.00,,,0.00,VWS V14.01,2013-08-19 09:52:00,
2013-08-19 04:57:00,55.4,54.3,29.14,ENE,68,0.0,0.0,96,0.00,,,0.00,VWS V14.01,2013-08-19 09:57:00,
2013-08-19 05:02:00,55.4,54.3,29.14,ENE,68,0.0,0.0,96,0.00,,,0.00,VWS V14.01,2013-08-19 10:02:00,
2013-08-19 05:07:00,55.4,54.3,29.14,ENE,68,0.0,0.0,96,0.00,,,0.00,VWS V14.01,2013-08-19 10:07:00,
2013-08-19 05:12:00,55.4,54.3,29.14,ENE,68,0.0,0.0,96,0.00,,,0.00,VWS V14.01,2013-08-19 10:12:00,
2013-08-19 05:17:00,55.4,54.3,29.14,ENE,68,0.0,0.0,96,0.00,,,0.00,VWS V14.01,2013-08-19 10:17:00,
2013-08-19 05:22:00,55.4,54.6,29.14,ENE,68,0.0,0.0,97,0.00,,,0.00,VWS V14.01,2013-08-19 10:22:00,
2013-08-19 05:27:00,55.2,54.4,29.14,ENE,68,0.0,0.0,97,0.00,,,0.00,VWS V14.01,2013-08-19 10:27:00,
2013-08-19 05:32:00,55.4,54.6,29.14,NNE,22,0.0,0.0,97,0.00,,,0.00,VWS V14.01,2013-08-19 10:32:00,
2013-08-19 05:37:00,55.4,54.6,29.14,NNE,22,1.3,1.3,97,0.00,,,0.00,VWS V14.01,2013-08-19 10:37:00,
2013-08-19 05:42:00,55.8,54.9,29.14,NNE,22,0.0,0.0,97,0.00,,,0.00,VWS V14.01,2013-08-19 10:42:00,
2013-08-19 05:47:00,55.9,55.1,29.14,NNE,22,0.0,0.0,97,0.00,,,0.00,VWS V14.01,2013-08-19 10:47:00,
2013-08-19 05:52:00,55.9,55.1,29.14,NNE,22,1.3,1.3,97,0.00,,,0.00,VWS V14.01,2013-08-19 10:52:00,
2013-08-19 05:57:00,55.9,55.1,29.14,NNE,22,0.0,0.0,97,0.00,,,0.00,VWS V14.01,2013-08-19 10:57:00,
2013-08-19 06:02:00,55.8,54.9,29.14,NNE,22,0.0,0.0,97,0.00,,,0.00,VWS V14.01,2013-08-19 11:02:00,
2013-08-19 06:07:00,55.8,54.9,29.14,NNE,22,0.0,0.0,97,0.00,,,0.00,VWS V14.01,2013-08-19 11:07:00,
2013-08-19 06:12:00,55.6,54.8,29.17,NNE,22,0.0,0.0,97,0.00,,,0.00,VWS V14.01,2013-08-19 11:12:00,
2013-08-19 06:17:00,55.6,54.8,29.17,NNE,22,0.0,0.0,97,0.00,,,0.00,VWS V14.01,2013-08-19 11:17:00,
2013-08-19 06:22:00,55.6,54.8,29.17,NNE,22,0.0,0.0,97,0.00,,,0.00,VWS V14.01,2013-08-19 11:22:00,
2013-08-19 06:27:00,55.6,54.8,29.14,NNE,22,0.0,0.0,97,0.00,,,0.00,VWS V14.01,2013-08-19 11:27:00,
2013-08-19 06:32:00,55.8,54.9,29.14,NNE,22,0.0,0.0,97,0.00,,,0.00,VWS V14.01,2013-08-19 11:32:00,
2013-08-19 06:37:00,55.8,54.9,29.14,NNE,22,0.0,0.0,97,0.00,,,0.00,VWS V14.01,2013-08-19 11:37:00,
2013-08-19 06:43:00,56.3,55.8,29.14,NNE,22,0.0,0.0,98,0.00,,,0.00,VWS V14.01,2013-08-19 11:43:00,
2013-08-19 06:48:00,56.7,56.1,29.14,NNE,22,0.0,0.0,98,0.00,,,0.00,VWS V14.01,2013-08-19 11:48:00,
2013-08-19 06:53:00,57.4,56.8,29.14,NNE,22,0.0,1.1,98,0.00,,,0.00,VWS V14.01,2013-08-19 11:53:00,
2013-08-19 06:58:00,58.1,57.5,29.12,NNE,22,0.0,1.1,98,0.00,,,0.00,VWS V14.01,2013-08-19 11:58:00,
2013-08-19 07:03:00,58.8,58.3,29.12,NNW,338,0.0,1.3,98,0.00,,,0.00,VWS V14.01,2013-08-19 12:03:00,
2013-08-19 07:08:00,59.2,58.6,29.12,SW,225,0.0,0.0,98,0.00,,,0.00,VWS V14.01,2013-08-19 12:08:00,
2013-08-19 07:13:00,60.1,59.2,29.14,NNW,338,0.0,2.2,97,0.00,,,0.00,VWS V14.01,2013-08-19 12:13:00,
2013-08-19 07:18:00,60.6,59.8,29.14,North,0,1.1,2.7,97,0.00,,,0.00,VWS V14.01,2013-08-19 12:18:00,
2013-08-19 07:23:00,61.2,59.7,29.14,ENE,68,0.0,1.1,95,0.00,,,0.00,VWS V14.01,2013-08-19 12:23:00,
2013-08-19 07:28:00,61.7,60.0,29.12,SSE,158,2.2,2.2,94,0.00,,,0.00,VWS V14.01,2013-08-19 12:28:00,
2013-08-19 07:33:00,62.1,60.0,29.12,South,180,1.6,1.6,93,0.00,,,0.00,VWS V14.01,2013-08-19 12:33:00,
2013-08-19 07:38:00,62.2,60.2,29.12,SSE,158,0.0,1.3,93,0.00,,,0.00,VWS V14.01,2013-08-19 12:38:00,
2013-08-19 07:43:00,62.4,60.1,29.12,WSW,248,0.0,1.1,92,0.00,,,0.00,VWS V14.01,2013-08-19 12:43:00,
2013-08-19 07:48:00,62.6,59.9,29.12,SE,135,0.0,1.6,91,0.00,,,0.00,VWS V14.01,2013-08-19 12:48:00,
2013-08-19 07:53:00,62.8,59.8,29.12,ESE,112,0.0,2.2,90,0.00,,,0.00,VWS V14.01,2013-08-19 12:53:00,
2013-08-19 07:58:00,63.0,60.0,29.12,East,90,0.0,2.0,90,0.00,,,0.00,VWS V14.01,2013-08-19 12:58:00,
2013-08-19 08:03:00,63.0,60.0,29.12,ESE,112,1.3,1.3,90,0.00,,,0.00,VWS V14.01,2013-08-19 13:03:00,
2013-08-19 08:08:00,63.1,60.2,29.12,NW,315,0.0,2.2,90,0.00,,,0.00,VWS V14.01,2013-08-19 13:08:00,
2013-08-19 08:13:00,63.1,60.2,29.14,East,90,0.0,1.6,90,0.00,,,0.00,VWS V14.01,2013-08-19 13:13:00,
2013-08-19 08:18:00,63.5,60.2,29.14,SE,135,1.3,3.4,89,0.00,,,0.00,VWS V14.01,2013-08-19 13:18:00,
2013-08-19 08:23:00,63.9,60.6,29.14,NE,45,2.5,2.5,89,0.00,,,0.00,VWS V14.01,2013-08-19 13:23:00,
2013-08-19 08:28:00,64.2,60.9,29.14,NE,45,0.0,1.3,89,0.00,,,0.00,VWS V14.01,2013-08-19 13:28:00,
2013-08-19 08:33:00,64.8,60.8,29.14,WSW,248,0.0,2.2,87,0.00,,,0.00,VWS V14.01,2013-08-19 13:33:00,
2013-08-19 08:38:00,65.5,61.5,29.12,NW,315,1.1,3.8,87,0.00,,,0.00,VWS V14.01,2013-08-19 13:38:00,
2013-08-19 08:43:00,66.0,62.0,29.12,South,180,2.7,2.7,87,0.00,,,0.00,VWS V14.01,2013-08-19 13:43:00,
2013-08-19 08:49:00,66.6,61.9,29.12,SE,135,1.1,2.5,85,0.00,,,0.00,VWS V14.01,2013-08-19 13:49:00,
2013-08-19 08:54:00,66.9,61.9,29.12,NE,45,1.3,3.8,84,0.00,,,0.00,VWS V14.01,2013-08-19 13:54:00,
2013-08-19 08:59:00,67.3,62.0,29.12,NNW,338,0.9,3.4,83,0.00,,,0.00,VWS V14.01,2013-08-19 13:59:00,
2013-08-19 09:04:00,67.8,62.1,29.12,NE,45,0.0,2.2,82,0.00,,,0.00,VWS V14.01,2013-08-19 14:04:00,
2013-08-19 09:09:00,68.4,62.0,29.14,South,180,3.4,3.4,80,0.00,,,0.00,VWS V14.01,2013-08-19 14:09:00,
2013-08-19 09:14:00,68.9,62.8,29.14,NNE,22,0.9,2.9,81,0.00,,,0.00,VWS V14.01,2013-08-19 14:14:00,
2013-08-19 09:19:00,69.4,62.7,29.14,WSW,248,0.0,3.1,79,0.00,,,0.00,VWS V14.01,2013-08-19 14:19:00,
2013-08-19 09:24:00,70.3,63.2,29.14,NE,45,2.0,3.1,78,0.00,,,0.00,VWS V14.01,2013-08-19 14:24:00,
2013-08-19 09:29:00,70.9,63.7,29.14,NE,45,0.0,2.0,78,0.00,,,0.00,VWS V14.01,2013-08-19 14:29:00,
2013-08-19 09:34:00,70.9,62.2,29.14,NNW,338,2.2,3.4,74,0.00,,,0.00,VWS V14.01,2013-08-19 14:34:00,
2013-08-19 09:39:00,71.1,62.7,29.14,SE,135,4.3,4.3,75,0.00,,,0.00,VWS V14.01,2013-08-19 14:39:00,
2013-08-19 09:44:00,70.9,62.2,29.14,East,90,2.2,3.1,74,0.00,,,0.00,VWS V14.01,2013-08-19 14:44:00,
2013-08-19 09:49:00,71.4,63.1,29.14,ESE,112,3.6,3.6,75,0.00,,,0.00,VWS V14.01,2013-08-19 14:49:00,
2013-08-19 09:54:00,71.8,63.1,29.14,East,90,0.9,2.0,74,0.00,,,0.00,VWS V14.01,2013-08-19 14:54:00,
2013-08-19 09:59:00,72.0,63.2,29.14,WSW,248,0.9,2.5,74,0.00,,,0.00,VWS V14.01,2013-08-19 14:59:00,
2013-08-19 10:04:00,72.3,63.2,29.14,East,90,1.1,2.0,73,0.00,,,0.00,VWS V14.01,2013-08-19 15:04:00,
2013-08-19 10:09:00,72.5,63.4,29.17,West,270,2.0,3.1,73,0.00,,,0.00,VWS V14.01,2013-08-19 15:09:00,
2013-08-19 10:14:00,72.9,63.7,29.17,SW,225,1.6,1.6,73,0.00,,,0.00,VWS V14.01,2013-08-19 15:14:00,
2013-08-19 10:19:00,73.8,64.2,29.17,ENE,68,0.0,2.0,72,0.00,,,0.00,VWS V14.01,2013-08-19 15:19:00,
2013-08-19 10:25:00,75.0,64.6,29.17,NE,45,2.9,2.9,70,0.00,,,0.00,VWS V14.01,2013-08-19 15:25:00,
2013-08-19 10:30:00,75.6,64.3,29.17,ENE,68,2.5,4.3,68,0.00,,,0.00,VWS V14.01,2013-08-19 15:30:00,
2013-08-19 10:35:00,75.6,63.4,29.17,SSE,158,2.0,2.9,66,0.00,,,0.00,VWS V14.01,2013-08-19 15:35:00,
2013-08-19 10:40:00,75.7,64.4,29.14,WSW,248,3.4,3.4,68,0.00,,,0.00,VWS V14.01,2013-08-19 15:40:00,
2013-08-19 10:45:00,75.6,63.8,29.14,NNW,338,1.1,3.6,67,0.00,,,0.00,VWS V14.01,2013-08-19 15:45:00,
2013-08-19 10:50:00,75.4,63.7,29.14,WSW,248,0.0,4.7,67,0.00,,,0.00,VWS V14.01,2013-08-19 15:50:00,
2013-08-19 10:55:00,75.4,63.7,29.12,NW,315,1.1,3.6,67,0.00,,,0.00,VWS V14.01,2013-08-19 15:55:00,
2013-08-19 11:00:00,75.4,64.1,29.12,SE,135,0.9,3.6,68,0.00,,,0.00,VWS V14.01,2013-08-19 16:00:00,
2013-08-19 11:05:00,75.6,64.3,29.12,NNW,338,1.1,3.4,68,0.00,,,0.00,VWS V14.01,2013-08-19 16:05:00,
2013-08-19 11:10:00,75.9,64.6,29.14,SSE,158,1.3,2.9,68,0.00,,,0.00,VWS V14.01,2013-08-19 16:10:00,
2013-08-19 11:15:00,76.1,64.8,29.14,SW,225,0.9,2.5,68,0.00,,,0.00,VWS V14.01,2013-08-19 16:15:00,
2013-08-19 11:20:00,76.1,64.4,29.14,NNW,338,0.9,4.0,67,0.00,,,0.00,VWS V14.01,2013-08-19 16:20:00,
2013-08-19 11:25:00,76.3,64.5,29.14,NNW,338,0.0,3.1,67,0.00,,,0.00,VWS V14.01,2013-08-19 16:25:00,
2013-08-19 11:30:00,76.3,64.5,29.14,WSW,248,1.3,2.9,67,0.00,,,0.00,VWS V14.01,2013-08-19 16:30:00,
2013-08-19 11:35:00,76.5,64.7,29.14,NW,315,1.6,3.8,67,0.00,,,0.00,VWS V14.01,2013-08-19 16:35:00,
2013-08-19 11:40:00,76.8,65.0,29.14,NNW,338,1.6,2.7,67,0.00,,,0.00,VWS V14.01,2013-08-19 16:40:00,
2013-08-19 11:46:00,77.2,64.9,29.14,NE,45,0.0,3.6,66,0.00,,,0.00,VWS V14.01,2013-08-19 16:46:00,
2013-08-19 11:50:00,77.2,64.5,29.14,West,270,3.1,4.9,65,0.00,,,0.00,VWS V14.01,2013-08-19 16:50:00,
2013-08-19 11:56:00,76.8,64.6,29.14,SW,225,1.6,3.6,66,0.00,,,0.00,VWS V14.01,2013-08-19 16:56:00,
2013-08-19 12:01:00,77.2,64.9,29.14,WSW,248,2.5,3.1,66,0.00,,,0.00,VWS V14.01,2013-08-19 17:01:00,
2013-08-19 12:06:00,77.7,65.5,29.14,SE,135,3.1,3.1,66,0.00,,,0.00,VWS V14.01,2013-08-19 17:06:00,
2013-08-19 12:11:00,78.8,65.6,29.14,WNW,292,2.9,3.1,64,0.00,,,0.00,VWS V14.01,2013-08-19 17:11:00,
2013-08-19 12:16:00,79.2,65.5,29.14,NNW,338,2.0,2.7,63,0.00,,,0.00,VWS V14.01,2013-08-19 17:16:00,
2013-08-19 12:21:00,81.0,66.7,29.14,ENE,68,2.5,4.0,62,0.00,,,0.00,VWS V14.01,2013-08-19 17:21:00,
2013-08-19 12:26:00,82.2,66.0,29.14,NW,315,3.6,3.6,58,0.00,,,0.00,VWS V14.01,2013-08-19 17:26:00,
2013-08-19 12:31:00,82.2,65.5,29.14,SW,225,4.0,4.0,57,0.00,,,0.00,VWS V14.01,2013-08-19 17:31:00,
2013-08-19 12:36:00,82.2,64.5,29.14,WNW,292,2.0,4.3,55,0.00,,,0.00,VWS V14.01,2013-08-19 17:36:00,
2013-08-19 12:41:00,82.0,64.8,29.12,SSE,158,3.4,3.4,56,0.00,,,0.00,VWS V14.01,2013-08-19 17:41:00,
2013-08-19 12:46:00,81.5,64.3,29.12,SE,135,4.3,4.3,56,0.00,,,0.00,VWS V14.01,2013-08-19 17:46:00,
2013-08-19 12:51:00,80.6,64.0,29.12,SE,135,2.9,3.1,57,0.00,,,0.00,VWS V14.01,2013-08-19 17:51:00,
2013-08-19 12:56:00,80.4,64.8,29.12,South,180,3.4,7.8,59,0.00,,,0.00,VWS V14.01,2013-08-19 17:56:00,
2013-08-19 13:02:00,80.8,65.1,29.12,NW,315,2.2,5.8,59,0.00,,,0.00,VWS V14.01,2013-08-19 18:02:00,
2013-08-19 13:07:00,80.6,65.0,29.12,SSW,202,2.9,4.3,59,0.00,,,0.00,VWS V14.01,2013-08-19 18:07:00,
2013-08-19 13:12:00,80.6,65.4,29.12,ESE,112,1.3,5.4,60,0.00,,,0.00,VWS V14.01,2013-08-19 18:12:00,
2013-08-19 13:17:00,80.2,65.1,29.12,ESE,112,1.1,2.5,60,0.00,,,0.00,VWS V14.01,2013-08-19 18:17:00,
2013-08-19 13:22:00,80.1,64.9,29.12,NW,315,7.6,7.6,60,0.00,,,0.00,VWS V14.01,2013-08-19 18:22:00,
2013-08-19 13:27:00,80.4,65.8,29.12,NNW,338,0.9,0.9,61,0.00,,,0.00,VWS V14.01,2013-08-19 18:27:00,
2013-08-19 13:32:00,80.8,66.1,29.12,SE,135,2.0,2.7,61,0.00,,,0.00,VWS V14.01,2013-08-19 18:32:00,
2013-08-19 13:37:00,81.3,65.6,29.12,SSE,158,3.4,3.6,59,0.00,,,0.00,VWS V14.01,2013-08-19 18:37:00,
2013-08-19 13:42:00,81.3,65.1,29.12,NNE,22,2.0,4.0,58,0.00,,,0.00,VWS V14.01,2013-08-19 18:42:00,
2013-08-19 13:47:00,81.0,64.8,29.12,North,0,2.0,3.8,58,0.00,,,0.00,VWS V14.01,2013-08-19 18:47:00,
2013-08-19 13:52:00,81.1,65.0,29.12,WNW,292,2.5,7.4,58,0.00,,,0.00,VWS V14.01,2013-08-19 18:52:00,
2013-08-19 13:57:00,81.5,65.3,29.12,South,180,2.2,4.0,58,0.00,,,0.00,VWS V14.01,2013-08-19 18:57:00,
2013-08-19 14:02:00,82.2,65.5,29.12,ENE,68,2.5,6.0,57,0.00,,,0.00,VWS V14.01,2013-08-19 19:02:00,
2013-08-19 14:07:00,82.4,65.7,29.12,SW,225,2.7,3.6,57,0.00,,,0.00,VWS V14.01,2013-08-19 19:07:00,
2013-08-19 14:12:00,82.9,65.7,29.12,SSE,158,2.0,3.1,56,0.00,,,0.00,VWS V14.01,2013-08-19 19:12:00,
2013-08-19 14:17:00,83.3,65.5,29.12,NNE,22,5.6,5.6,55,0.00,,,0.00,VWS V14.01,2013-08-19 19:17:00,
2013-08-19 14:22:00,83.8,65.4,29.12,SSE,158,3.1,3.6,54,0.00,,,0.00,VWS V14.01,2013-08-19 19:22:00,
2013-08-19 14:27:00,83.8,65.4,29.12,SW,225,2.9,4.0,54,0.00,,,0.00,VWS V14.01,2013-08-19 19:27:00,
2013-08-19 14:32:00,84.4,64.8,29.12,SSW,202,6.9,6.9,52,0.00,,,0.00,VWS V14.01,2013-08-19 19:32:00,
2013-08-19 14:37:00,84.9,65.9,29.12,West,270,4.7,4.7,53,0.00,,,0.00,VWS V14.01,2013-08-19 19:37:00,
2013-08-19 14:42:00,84.9,65.9,29.12,WSW,248,3.8,4.9,53,0.00,,,0.00,VWS V14.01,2013-08-19 19:42:00,
2013-08-19 14:48:00,85.1,65.5,29.12,SW,225,5.8,5.8,52,0.00,,,0.00,VWS V14.01,2013-08-19 19:48:00,
2013-08-19 14:53:00,84.9,64.8,29.12,NW,315,2.9,2.9,51,0.00,,,0.00,VWS V14.01,2013-08-19 19:53:00,
2013-08-19 14:58:00,84.4,64.3,29.12,NNW,338,2.0,6.0,51,0.00,,,0.00,VWS V14.01,2013-08-19 19:58:00,
2013-08-19 15:03:00,84.7,64.6,29.12,WNW,292,4.5,6.5,51,0.00,,,0.00,VWS V14.01,2013-08-19 20:03:00,
2013-08-19 15:08:00,84.9,64.2,29.12,WNW,292,3.1,6.3,50,0.00,,,0.00,VWS V14.01,2013-08-19 20:08:00,
2013-08-19 15:13:00,84.9,64.8,29.12,SSW,202,3.4,6.0,51,0.00,,,0.00,VWS V14.01,2013-08-19 20:13:00,
2013-08-19 15:18:00,85.6,64.3,29.12,NW,315,2.7,3.8,49,0.00,,,0.00,VWS V14.01,2013-08-19 20:18:00,
2013-08-19 15:23:00,85.6,64.3,29.09,WNW,292,4.3,9.6,49,0.00,,,0.00,VWS V14.01,2013-08-19 20:23:00,
2013-08-19 15:28:00,86.4,65.0,29.09,NNE,22,3.8,7.8,49,0.00,,,0.00,VWS V14.01,2013-08-19 20:28:00,
2013-08-19 15:34:00,85.5,64.1,29.09,South,180,4.9,6.0,49,0.00,,,0.00,VWS V14.01,2013-08-19 20:34:00,
2013-08-19 15:39:00,85.8,65.1,29.09,SW,225,3.6,4.0,50,0.00,,,0.00,VWS V14.01,2013-08-19 20:39:00,
2013-08-19 15:44:00,86.2,64.8,29.09,NE,45,2.5,4.0,49,0.00,,,0.00,VWS V14.01,2013-08-19 20:44:00,
2013-08-19 15:49:00,86.4,65.0,29.09,SW,225,3.1,8.1,49,0.00,,,0.00,VWS V14.01,2013-08-19 20:49:00,
2013-08-19 15:54:00,86.7,65.3,29.09,East,90,2.5,8.1,49,0.00,,,0.00,VWS V14.01,2013-08-19 20:54:00,
2013-08-19 15:59:00,87.1,65.0,29.09,ENE,68,4.0,6.0,48,0.00,,,0.00,VWS V14.01,2013-08-19 20:59:00,
2013-08-19 16:04:00,87.1,65.0,29.09,ENE,68,2.0,2.9,48,0.00,,,0.00,VWS V14.01,2013-08-19 21:04:00,
2013-08-19 16:09:00,87.3,65.2,29.09,West,270,5.4,6.5,48,0.00,,,0.00,VWS V14.01,2013-08-19 21:09:00,
2013-08-19 16:14:00,87.1,64.4,29.09,NNE,22,4.7,4.7,47,0.00,,,0.00,VWS V14.01,2013-08-19 21:14:00,
2013-08-19 16:20:00,86.7,64.1,29.09,NW,315,1.3,6.5,47,0.00,,,0.00,VWS V14.01,2013-08-19 21:20:00,
2013-08-19 16:25:00,86.5,63.9,29.09,SE,135,5.8,5.8,47,0.00,,,0.00,VWS V14.01,2013-08-19 21:25:00,
2013-08-19 16:30:00,85.3,62.8,29.09,ESE,112,2.2,8.5,47,0.00,,,0.00,VWS V14.01,2013-08-19 21:30:00,
2013-08-19 16:35:00,86.2,64.2,29.09,WNW,292,2.5,2.5,48,0.00,,,0.00,VWS V14.01,2013-08-19 21:35:00,
2013-08-19 16:40:00,86.4,64.4,29.09,NW,315,3.1,4.9,48,0.00,,,0.00,VWS V14.01,2013-08-19 21:40:00,
2013-08-19 16:45:00,85.3,64.0,29.09,NE,45,1.3,6.0,49,0.00,,,0.00,VWS V14.01,2013-08-19 21:45:00,
2013-08-19 16:50:00,85.3,64.6,29.09,WNW,292,3.4,4.3,50,0.00,,,0.00,VWS V14.01,2013-08-19 21:50:00,
2013-08-19 16:55:00,85.3,64.6,29.09,ESE,112,2.0,5.8,50,0.00,,,0.00,VWS V14.01,2013-08-19 21:55:00,
2013-08-19 17:00:00,85.3,64.6,29.09,West,270,2.0,4.3,50,0.00,,,0.00,VWS V14.01,2013-08-19 22:00:00,
2013-08-19 17:05:00,85.3,64.6,29.09,WNW,292,3.1,3.8,50,0.00,,,0.00,VWS V14.01,2013-08-19 22:05:00,
2013-08-19 17:10:00,85.5,64.7,29.06,SSE,158,1.3,4.9,50,0.00,,,0.00,VWS V14.01,2013-08-19 22:10:00,
2013-08-19 17:15:00,85.5,65.3,29.06,SE,135,2.0,5.4,51,0.00,,,0.00,VWS V14.01,2013-08-19 22:15:00,
2013-08-19 17:20:00,85.1,65.0,29.06,East,90,2.7,6.0,51,0.00,,,0.00,VWS V14.01,2013-08-19 22:20:00,
2013-08-19 17:25:00,84.4,64.3,29.09,SSE,158,0.0,3.6,51,0.00,,,0.00,VWS V14.01,2013-08-19 22:25:00,
2013-08-19 17:31:00,84.9,65.3,29.09,North,0,1.6,3.8,52,0.00,,,0.00,VWS V14.01,2013-08-19 22:31:00,
2013-08-19 17:36:00,84.9,65.3,29.09,NE,45,2.5,4.5,52,0.00,,,0.00,VWS V14.01,2013-08-19 22:36:00,
2013-08-19 17:41:00,84.7,65.2,29.06,SSW,202,2.9,4.0,52,0.00,,,0.00,VWS V14.01,2013-08-19 22:41:00,
2013-08-19 17:46:00,84.6,65.0,29.06,South,180,2.9,4.7,52,0.00,,,0.00,VWS V14.01,2013-08-19 22:46:00,
2013-08-19 17:51:00,84.4,65.4,29.06,ENE,68,0.0,6.3,53,0.00,,,0.00,VWS V14.01,2013-08-19 22:51:00,
2013-08-19 17:56:00,84.4,65.4,29.09,East,90,1.1,3.8,53,0.00,,,0.00,VWS V14.01,2013-08-19 22:56:00,
2013-08-19 18:01:00,84.4,65.9,29.09,West,270,1.6,3.6,54,0.00,,,0.00,VWS V14.01,2013-08-19 23:01:00,
2013-08-19 18:06:00,84.2,65.8,29.09,NE,45,2.5,3.6,54,0.00,,,0.00,VWS V14.01,2013-08-19 23:06:00,
2013-08-19 18:11:00,83.8,66.0,29.12,WNW,292,2.0,3.1,55,0.00,,,0.00,VWS V14.01,2013-08-19 23:11:00,
2013-08-19 18:16:00,83.7,66.3,29.12,NW,315,1.3,1.3,56,0.00,,,0.00,VWS V14.01,2013-08-19 23:16:00,
2013-08-19 18:21:00,83.3,66.0,29.12,South,180,1.6,3.4,56,0.00,,,0.00,VWS V14.01,2013-08-19 23:21:00,
2013-08-19 18:26:00,82.9,66.2,29.12,WNW,292,1.1,3.6,57,0.00,,,0.00,VWS V14.01,2013-08-19 23:26:00,
2013-08-19 18:31:00,82.8,66.5,29.12,East,90,1.6,1.6,58,0.00,,,0.00,VWS V14.01,2013-08-19 23:31:00,
2013-08-19 18:36:00,82.4,66.2,29.12,East,90,1.6,1.6,58,0.00,,,0.00,VWS V14.01,2013-08-19 23:36:00,
2013-08-19 18:41:00,81.9,66.6,29.09,East,90,2.2,2.7,60,0.00,,,0.00,VWS V14.01,2013-08-19 23:41:00,
2013-08-19 18:46:00,81.3,66.6,29.09,SSE,158,0.9,2.0,61,0.00,,,0.00,VWS V14.01,2013-08-19 23:46:00,
2013-08-19 18:51:00,81.1,66.4,29.09,NW,315,0.0,2.0,61,0.00,,,0.00,VWS V14.01,2013-08-19 23:51:00,
2013-08-19 18:56:00,80.6,66.4,29.09,SSE,158,1.1,3.8,62,0.00,,,0.00,VWS V14.01,2013-08-19 23:56:00,
2013-08-19 19:01:00,80.2,67.0,29.09,ENE,68,1.3,1.3,64,0.00,,,0.00,VWS V14.01,2013-08-20 00:01:00,
2013-08-19 19:06:00,80.1,66.8,29.09,NNE,22,1.1,2.0,64,0.00,,,0.00,VWS V14.01,2013-08-20 00:06:00,
2013-08-19 19:11:00,79.7,66.9,29.09,East,90,0.0,0.0,65,0.00,,,0.00,VWS V14.01,2013-08-20 00:11:00,
2013-08-19 19:16:00,79.5,67.2,29.09,NW,315,2.7,2.9,66,0.00,,,0.00,VWS V14.01,2013-08-20 00:16:00,
2013-08-19 19:21:00,79.3,67.0,29.09,NE,45,1.6,2.0,66,0.00,,,0.00,VWS V14.01,2013-08-20 00:21:00,
2013-08-19 19:26:00,79.0,67.1,29.09,SSE,158,0.0,0.9,67,0.00,,,0.00,VWS V14.01,2013-08-20 00:26:00,
2013-08-19 19:31:00,78.6,67.2,29.09,ENE,68,0.0,2.0,68,0.00,,,0.00,VWS V14.01,2013-08-20 00:31:00,
2013-08-19 19:36:00,78.4,67.0,29.09,NW,315,0.0,2.7,68,0.00,,,0.00,VWS V14.01,2013-08-20 00:36:00,
2013-08-19 19:41:00,78.1,66.7,29.09,WNW,292,0.0,2.7,68,0.00,,,0.00,VWS V14.01,2013-08-20 00:41:00,
2013-08-19 19:46:00,77.7,66.8,29.09,SE,135,0.0,1.3,69,0.00,,,0.00,VWS V14.01,2013-08-20 00:46:00,
2013-08-19 19:51:00,77.4,66.8,29.09,SE,135,0.0,1.6,70,0.00,,,0.00,VWS V14.01,2013-08-20 00:51:00,
2013-08-19 19:56:00,77.0,66.9,29.09,SE,135,0.0,0.0,71,0.00,,,0.00,VWS V14.01,2013-08-20 00:56:00,
2013-08-19 20:01:00,76.8,66.3,29.09,ENE,68,0.0,0.0,70,0.00,,,0.00,VWS V14.01,2013-08-20 01:01:00,
2013-08-19 20:07:00,76.5,67.2,29.09,SSW,202,1.3,1.6,73,0.00,,,0.00,VWS V14.01,2013-08-20 01:07:00,
2013-08-19 20:12:00,76.1,66.8,29.09,SSW,202,1.3,1.3,73,0.00,,,0.00,VWS V14.01,2013-08-20 01:12:00,
2013-08-19 20:17:00,75.9,66.2,29.09,ENE,68,0.0,0.0,72,0.00,,,0.00,VWS V14.01,2013-08-20 01:17:00,
2013-08-19 20:22:00,75.6,66.7,29.09,SE,135,0.0,1.3,74,0.00,,,0.00,VWS V14.01,2013-08-20 01:22:00,
2013-08-19 20:27:00,75.2,66.0,29.09,SE,135,0.0,0.0,73,0.00,,,0.00,VWS V14.01,2013-08-20 01:27:00,
2013-08-19 20:32:00,75.0,66.6,29.09,SSE,158,0.0,0.9,75,0.00,,,0.00,VWS V14.01,2013-08-20 01:32:00,
2013-08-19 20:37:00,74.8,66.8,29.09,NNW,338,0.0,0.0,76,0.00,,,0.00,VWS V14.01,2013-08-20 01:37:00,
2013-08-19 20:42:00,74.5,66.0,29.09,NNW,338,0.0,0.0,75,0.00,,,0.00,VWS V14.01,2013-08-20 01:42:00,
2013-08-19 20:47:00,74.3,66.6,29.09,South,180,0.0,2.2,77,0.00,,,0.00,VWS V14.01,2013-08-20 01:47:00,
2013-08-19 20:52:00,73.9,65.9,29.09,SSE,158,0.9,0.9,76,0.00,,,0.00,VWS V14.01,2013-08-20 01:52:00,
2013-08-19 20:57:00,73.8,66.5,29.09,NE,45,0.0,0.0,78,0.00,,,0.00,VWS V14.01,2013-08-20 01:57:00,
2013-08-19 21:02:00,73.4,66.5,29.09,WNW,292,0.0,2.0,79,0.00,,,0.00,VWS V14.01,2013-08-20 02:02:00,
2013-08-19 21:07:00,73.2,66.3,29.09,SW,225,0.0,0.0,79,0.00,,,0.00,VWS V14.01,2013-08-20 02:07:00,
2013-08-19 21:12:00,73.2,66.3,29.09,WSW,248,0.0,2.7,79,0.00,,,0.00,VWS V14.01,2013-08-20 02:12:00,
2013-08-19 21:17:00,72.9,66.3,29.09,SSE,158,0.0,0.0,80,0.00,,,0.00,VWS V14.01,2013-08-20 02:17:00,
2013-08-19 21:22:00,72.5,66.0,29.09,SE,135,0.0,0.0,80,0.00,,,0.00,VWS V14.01,2013-08-20 02:22:00,
2013-08-19 21:27:00,72.3,66.2,29.09,WNW,292,1.1,1.6,81,0.00,,,0.00,VWS V14.01,2013-08-20 02:27:00,
2013-08-19 21:32:00,72.1,66.0,29.09,SSW,202,0.0,0.9,81,0.00,,,0.00,VWS V14.01,2013-08-20 02:32:00,
2013-08-19 21:37:00,72.0,65.8,29.09,SE,135,0.0,0.0,81,0.00,,,0.00,VWS V14.01,2013-08-20 02:37:00,
2013-08-19 21:42:00,71.8,65.6,29.09,SE,135,0.0,0.0,81,0.00,,,0.00,VWS V14.01,2013-08-20 02:42:00,
2013-08-19 21:47:00,71.6,65.5,29.09,ESE,112,0.0,0.0,81,0.00,,,0.00,VWS V14.01,2013-08-20 02:47:00,
2013-08-19 21:53:00,71.4,66.0,29.09,NE,45,0.0,0.0,83,0.00,,,0.00,VWS V14.01,2013-08-20 02:53:00,
2013-08-19 21:58:00,71.2,65.8,29.06,SE,135,0.0,0.0,83,0.00,,,0.00,VWS V14.01,2013-08-20 02:58:00,
2013-08-19 22:03:00,71.1,66.0,29.06,SE,135,0.0,1.3,84,0.00,,,0.00,VWS V14.01,2013-08-20 03:03:00,
2013-08-19 22:08:00,70.9,65.8,29.06,SE,135,0.0,0.9,84,0.00,,,0.00,VWS V14.01,2013-08-20 03:08:00,
2013-08-19 22:13:00,70.9,66.2,29.09,East,90,0.0,0.0,85,0.00,,,0.00,VWS V14.01,2013-08-20 03:13:00,
2013-08-19 22:18:00,70.7,66.0,29.09,SE,135,0.0,0.0,85,0.00,,,0.00,VWS V14.01,2013-08-20 03:18:00,
2013-08-19 22:23:00,70.5,66.1,29.09,SSE,158,0.0,0.0,86,0.00,,,0.00,VWS V14.01,2013-08-20 03:23:00,
2013-08-19 22:28:00,70.3,66.0,29.09,SE,135,0.0,0.0,86,0.00,,,0.00,VWS V14.01,2013-08-20 03:28:00,
2013-08-19 22:33:00,70.3,65.6,29.09,SE,135,0.0,0.0,85,0.00,,,0.00,VWS V14.01,2013-08-20 03:33:00,
2013-08-19 22:38:00,70.2,65.8,29.09,SE,135,0.0,0.0,86,0.00,,,0.00,VWS V14.01,2013-08-20 03:38:00,
2013-08-19 22:43:00,70.0,65.6,29.09,ESE,112,0.0,0.0,86,0.00,,,0.00,VWS V14.01,2013-08-20 03:43:00,
2013-08-19 22:48:00,70.0,65.9,29.09,SSW,202,0.0,0.0,87,0.00,,,0.00,VWS V14.01,2013-08-20 03:48:00,
2013-08-19 22:53:00,69.8,65.4,29.09,ESE,112,0.9,0.9,86,0.00,,,0.00,VWS V14.01,2013-08-20 03:53:00,
2013-08-19 22:58:00,69.8,65.8,29.06,ESE,112,0.0,0.0,87,0.00,,,0.00,VWS V14.01,2013-08-20 03:58:00,
2013-08-19 23:01:00,69.8,65.8,29.06,ESE,112,0.0,0.0,87,0.00,,,0.00,VWS V14.01,2013-08-20 04:01:00,
2013-08-19 23:02:00,69.8,65.8,29.06,ESE,112,0.0,0.0,87,0.00,,,0.00,VWS V14.01,2013-08-20 04:02:00,
2013-08-19 23:03:00,69.8,65.8,29.06,East,90,0.0,0.0,87,0.00,,,0.00,VWS V14.01,2013-08-20 04:03:00,
2013-08-19 23:08:00,69.6,65.6,29.06,East,90,0.0,0.0,87,0.00,,,0.00,VWS V14.01,2013-08-20 04:08:00,
2013-08-19 23:13:00,69.4,65.4,29.06,East,90,0.0,0.0,87,0.00,,,0.00,VWS V14.01,2013-08-20 04:13:00,
2013-08-19 23:18:00,69.3,65.6,29.06,East,90,0.0,0.0,88,0.00,,,0.00,VWS V14.01,2013-08-20 04:18:00,
2013-08-19 23:23:00,69.1,65.4,29.06,East,90,0.0,0.0,88,0.00,,,0.00,VWS V14.01,2013-08-20 04:23:00,
2013-08-19 23:28:00,68.7,65.3,29.06,SE,135,0.0,0.0,89,0.00,,,0.00,VWS V14.01,2013-08-20 04:28:00,
2013-08-19 23:33:00,68.5,65.2,29.06,SE,135,0.0,0.0,89,0.00,,,0.00,VWS V14.01,2013-08-20 04:33:00,
2013-08-19 23:38:00,68.4,65.0,29.09,SE,135,0.0,0.0,89,0.00,,,0.00,VWS V14.01,2013-08-20 04:38:00,
2013-08-19 23:43:00,68.2,64.8,29.09,East,90,0.0,0.0,89,0.00,,,0.00,VWS V14.01,2013-08-20 04:43:00,
2013-08-19 23:48:00,68.2,65.1,29.09,SE,135,0.0,0.0,90,0.00,,,0.00,VWS V14.01,2013-08-20 04:48:00,
2013-08-19 23:53:00,68.0,65.0,29.09,ESE,112,0.0,0.0,90,0.00,,,0.00,VWS V14.01,2013-08-20 04:53:00,
2013-08-19 23:58:00,68.0,65.0,29.09,ESE,112,0.0,0.0,90,0.00,,,0.00,VWS V14.01,2013-08-20 04:58:00,